Time;durP1;ratioP1;P1;durP2;ratioP2;P2;SDS_P1;SDS_P2;PMS_P1;PMS_P2;Temp;Humidity;BMP_temperature;BMP_pressure;BME280_temperature;BME280_humidity;BME280_pressure;Samples;Min_cycle;Max_cycle;Signal;HPM_P1;HPM_P2
2022/08/15 00:00:46;;;;;;;4.60;4.30;;;29.00;39.90;;;;;;5029914;28;20432;-49
2022/08/15 00:03:20;;;;;;;4.67;4.07;;;29.00;40.50;;;;;;5029210;28;20445;-46
2022/08/15 00:05:45;;;;;;;5.53;4.60;;;29.00;41.50;;;;;;5029808;28;20515;-49
2022/08/15 00:08:11;;;;;;;5.80;4.37;;;29.00;42.10;;;;;;5030518;28;20515;-48
2022/08/15 00:10:37;;;;;;;5.30;4.80;;;28.90;42.80;;;;;;5029934;28;20225;-46
2022/08/15 00:13:15;;;;;;;4.70;4.40;;;28.80;42.80;;;;;;5030342;28;20490;-50
2022/08/15 00:15:42;;;;;;;4.93;4.40;;;28.80;43.30;;;;;;5029549;28;20189;-50
2022/08/15 00:18:08;;;;;;;8.10;4.90;;;28.80;43.90;;;;;;5030313;28;20428;-50
2022/08/15 00:20:37;;;;;;;5.43;4.30;;;28.70;43.90;;;;;;5029861;28;20762;-45
2022/08/15 00:23:07;;;;;;;5.50;4.30;;;28.70;44.00;;;;;;5030484;28;20205;-46
2022/08/15 00:25:37;;;;;;;5.07;4.57;;;28.60;43.80;;;;;;5029445;28;20808;-49
2022/08/15 00:28:05;;;;;;;5.20;4.80;;;28.20;43.30;;;;;;5030356;28;20824;-49
2022/08/15 00:30:31;;;;;;;8.53;5.00;;;27.70;46.20;;;;;;5028317;28;20432;-49
2022/08/15 00:32:58;;;;;;;5.60;5.17;;;27.60;45.90;;;;;;5030183;28;21004;-46
2022/08/15 00:35:36;;;;;;;4.37;4.07;;;27.70;45.40;;;;;;5029882;28;20427;-50
2022/08/15 00:38:16;;;;;;;5.37;4.90;;;27.80;44.80;;;;;;5033772;28;20514;-50
2022/08/15 00:43:58;;;;;;;6.07;4.70;;;28.00;43.90;;;;;;5030593;28;21422;-49
2022/08/15 00:46:26;;;;;;;4.73;4.43;;;28.00;43.70;;;;;;5031342;28;20554;-47
2022/08/15 00:48:52;;;;;;;5.27;4.77;;;28.00;44.30;;;;;;5032117;28;20432;-50
2022/08/15 00:51:52;;;;;;;5.10;4.70;;;27.80;46.10;;;;;;5033769;28;20431;-50
2022/08/15 00:54:41;;;;;;;7.37;4.90;;;27.20;47.60;;;;;;5025073;28;20507;-47
2022/08/15 00:57:19;;;;;;;5.13;4.83;;;27.00;48.70;;;;;;5032021;28;20432;-49
2022/08/15 00:59:48;;;;;;;5.43;5.07;;;27.10;49.20;;;;;;5033055;28;20798;-46
2022/08/15 01:02:18;;;;;;;5.10;4.70;;;27.20;48.90;;;;;;5033647;28;20965;-48
2022/08/15 01:04:45;;;;;;;7.07;4.90;;;27.10;48.90;;;;;;5033014;28;20511;-47
2022/08/15 01:07:11;;;;;;;8.93;5.30;;;27.10;49.50;;;;;;5033177;28;20490;-47
2022/08/15 01:09:37;;;;;;;5.87;5.37;;;27.10;49.90;;;;;;5032773;28;20519;-50
2022/08/15 01:12:11;;;;;;;5.60;5.20;;;27.20;49.90;;;;;;5033522;28;20416;-46
2022/08/15 01:14:39;;;;;;;6.17;5.43;;;27.20;49.80;;;;;;5032430;28;20436;-46
2022/08/15 01:17:07;;;;;;;5.50;5.10;;;27.30;50.20;;;;;;5033240;28;20420;-49
2022/08/15 01:19:37;;;;;;;8.43;5.20;;;27.40;50.20;;;;;;5032470;28;20915;-47
2022/08/15 01:22:16;;;;;;;5.60;5.13;;;27.40;50.30;;;;;;5032612;28;20471;-49
2022/08/15 01:24:59;;;;;;;5.87;5.37;;;27.40;50.60;;;;;;5032333;28;20431;-47
2022/08/15 01:27:31;;;;;;;5.60;4.73;;;27.40;50.30;;;;;;5032791;28;20985;-46
2022/08/15 01:29:58;;;;;;;5.60;5.10;;;27.40;50.60;;;;;;5032564;28;20424;-46
2022/08/15 01:32:24;;;;;;;6.90;5.50;;;27.10;49.90;;;;;;5033115;28;20471;-50
2022/08/15 01:34:50;;;;;;;5.03;4.63;;;27.10;50.30;;;;;;5032447;28;20424;-46
2022/08/15 01:37:16;;;;;;;5.37;4.87;;;27.10;50.50;;;;;;5032813;28;20611;-45
2022/08/15 01:39:53;;;;;;;5.53;4.53;;;27.20;50.80;;;;;;5032513;28;20205;-46
2022/08/15 01:42:27;;;;;;;5.30;4.83;;;27.20;50.60;;;;;;5032982;28;20428;-50
2022/08/15 01:45:01;;;;;;;6.53;5.10;;;27.30;50.70;;;;;;5031670;28;20436;-47
2022/08/15 01:47:57;;;;;;;6.23;5.07;;;27.30;50.80;;;;;;5032733;28;20427;-49
2022/08/15 01:50:34;;;;;;;5.27;4.87;;;27.20;50.30;;;;;;5030556;28;20436;-46
2022/08/15 01:53:09;;;;;;;6.10;5.07;;;27.20;50.50;;;;;;5032412;28;20515;-49
2022/08/15 01:56:06;;;;;;;5.10;4.70;;;27.20;50.60;;;;;;5031486;28;20476;-46
2022/08/15 01:58:37;;;;;;;5.40;5.00;;;27.00;50.90;;;;;;5032191;28;20531;-46
2022/08/15 02:01:10;;;;;;;5.70;4.80;;;27.00;51.00;;;;;;5032295;28;20439;-45
2022/08/15 02:03:38;;;;;;;6.23;5.73;;;27.00;50.60;;;;;;5031788;28;20428;-46
2022/08/15 02:06:12;;;;;;;5.10;4.60;;;27.10;50.40;;;;;;5032084;28;20478;-46
2022/08/15 02:08:39;;;;;;;5.50;4.90;;;27.10;50.40;;;;;;5031771;28;20437;-46
2022/08/15 02:11:13;;;;;;;5.37;4.87;;;27.10;50.30;;;;;;5032174;28;20427;-48
2022/08/15 02:13:40;;;;;;;5.70;5.20;;;27.00;50.40;;;;;;5031071;28;20483;-46
2022/08/15 02:16:06;;;;;;;8.70;5.10;;;27.00;50.70;;;;;;5030486;28;20767;-46
2022/08/15 02:18:31;;;;;;;5.00;4.57;;;27.10;50.70;;;;;;5032431;28;20440;-46
2022/08/15 02:20:57;;;;;;;4.67;4.37;;;27.10;50.40;;;;;;5031316;28;20221;-47
2022/08/15 02:23:24;;;;;;;5.67;5.17;;;27.10;50.40;;;;;;5031926;28;20242;-46
2022/08/15 02:25:52;;;;;;;4.80;4.40;;;27.10;50.10;;;;;;5031061;28;20208;-46
2022/08/15 02:28:19;;;;;;;5.20;4.70;;;27.00;49.90;;;;;;5032228;28;20825;-45
2022/08/15 02:30:45;;;;;;;5.00;4.60;;;27.00;49.90;;;;;;5031327;28;20419;-45
2022/08/15 02:33:11;;;;;;;8.53;4.70;;;27.10;49.80;;;;;;5031547;28;20570;-45
2022/08/15 02:35:38;;;;;;;5.57;5.17;;;27.10;49.60;;;;;;5030875;28;21046;-46
2022/08/15 02:38:05;;;;;;;5.23;4.83;;;27.10;49.50;;;;;;5031559;28;20697;-45
2022/08/15 02:40:32;;;;;;;6.00;5.60;;;27.20;49.40;;;;;;5030876;28;20435;-45
2022/08/15 02:43:07;;;;;;;5.80;5.33;;;27.10;49.40;;;;;;5030242;28;20420;-48
2022/08/15 02:45:37;;;;;;;6.17;5.57;;;27.20;49.70;;;;;;5030631;28;20467;-48
2022/08/15 02:48:07;;;;;;;5.40;4.97;;;27.20;50.00;;;;;;5031821;28;20432;-49
2022/08/15 02:50:35;;;;;;;6.63;5.30;;;27.20;50.20;;;;;;5030698;28;20440;-46
2022/08/15 02:53:10;;;;;;;5.57;5.13;;;27.20;50.20;;;;;;5031378;28;20987;-45
2022/08/15 02:55:36;;;;;;;6.50;5.83;;;27.20;50.20;;;;;;5030536;28;20426;-46
2022/08/15 02:58:02;;;;;;;5.80;5.30;;;27.10;49.90;;;;;;5030885;28;20424;-46
2022/08/15 03:00:29;;;;;;;6.10;4.67;;;27.10;50.00;;;;;;5030518;28;20436;-45
2022/08/15 03:03:01;;;;;;;6.50;5.00;;;27.10;49.70;;;;;;5031234;28;20524;-45
2022/08/15 03:05:29;;;;;;;5.77;4.90;;;27.10;49.60;;;;;;5030494;28;20421;-45
2022/08/15 03:07:56;;;;;;;5.77;4.53;;;27.20;49.30;;;;;;5031418;28;20428;-45
2022/08/15 03:10:21;;;;;;;7.57;5.07;;;27.20;49.20;;;;;;5029045;28;20427;-45
2022/08/15 03:12:54;;;;;;;5.60;4.73;;;27.20;49.00;;;;;;5031298;28;20551;-49
2022/08/15 03:15:25;;;;;;;5.07;4.70;;;27.20;49.00;;;;;;5030468;28;20565;-48
2022/08/15 03:17:51;;;;;;;4.90;3.97;;;27.20;49.10;;;;;;5031074;28;20424;-46
2022/08/15 03:20:19;;;;;;;5.00;4.53;;;27.20;49.30;;;;;;5030750;28;20424;-45
2022/08/15 03:22:46;;;;;;;6.80;4.20;;;27.30;49.20;;;;;;5030974;28;20903;-45
2022/08/15 03:25:13;;;;;;;5.90;5.40;;;27.20;49.10;;;;;;5030270;28;20430;-46
2022/08/15 03:27:40;;;;;;;5.60;4.90;;;27.30;49.10;;;;;;5031123;28;20428;-45
2022/08/15 03:30:09;;;;;;;5.03;4.00;;;27.30;49.00;;;;;;5030333;28;20481;-45
2022/08/15 03:32:43;;;;;;;4.70;4.40;;;27.20;49.10;;;;;;5030905;28;20492;-46
2022/08/15 03:35:10;;;;;;;5.00;4.60;;;27.20;49.00;;;;;;5030034;28;20845;-45
2022/08/15 03:37:37;;;;;;;6.80;4.33;;;27.20;49.00;;;;;;5029003;28;20468;-45
2022/08/15 03:40:05;;;;;;;5.80;4.50;;;27.10;49.30;;;;;;5030128;28;20433;-46
2022/08/15 03:42:30;;;;;;;5.23;4.50;;;27.10;49.50;;;;;;5030904;28;20448;-46
2022/08/15 03:44:56;;;;;;;4.50;4.10;;;27.10;49.40;;;;;;5029870;28;20435;-46
2022/08/15 03:47:22;;;;;;;5.07;4.13;;;27.10;49.30;;;;;;5031011;28;20205;-45
2022/08/15 03:49:48;;;;;;;5.40;4.27;;;27.10;49.20;;;;;;5030084;28;20615;-46
2022/08/15 03:52:14;;;;;;;5.10;4.60;;;27.00;49.50;;;;;;5030581;28;20553;-46
2022/08/15 03:54:39;;;;;;;5.57;4.93;;;26.90;49.70;;;;;;5029687;28;20436;-45
2022/08/15 03:57:06;;;;;;;5.17;4.70;;;26.80;50.10;;;;;;5030736;28;20432;-45
2022/08/15 03:59:32;;;;;;;5.07;4.57;;;26.80;49.90;;;;;;5029807;28;20645;-46
2022/08/15 04:01:58;;;;;;;4.03;3.60;;;26.80;49.80;;;;;;5030388;28;20436;-46
2022/08/15 04:04:24;;;;;;;3.77;3.10;;;26.90;49.60;;;;;;5028425;28;20458;-45
2022/08/15 04:06:49;;;;;;;7.00;4.50;;;26.90;49.60;;;;;;5030687;28;20559;-45
2022/08/15 04:09:15;;;;;;;3.70;3.40;;;26.80;49.70;;;;;;5030131;28;20189;-45
2022/08/15 04:11:41;;;;;;;5.63;3.60;;;26.80;49.60;;;;;;5033066;28;20189;-46
2022/08/15 04:14:06;;;;;;;4.23;3.40;;;26.80;49.70;;;;;;5033430;28;20232;-48
2022/08/15 04:16:32;;;;;;;4.30;3.63;;;26.60;50.70;;;;;;5034676;28;20208;-49
2022/08/15 04:18:58;;;;;;;3.90;3.60;;;26.60;50.30;;;;;;5033760;28;21611;-49
2022/08/15 04:21:24;;;;;;;3.40;3.10;;;26.60;50.40;;;;;;5034255;28;20185;-47
2022/08/15 04:23:50;;;;;;;3.83;3.53;;;26.50;51.30;;;;;;5033354;28;20408;-49
2022/08/15 04:26:17;;;;;;;4.30;3.57;;;26.50;50.60;;;;;;5034354;28;20201;-49
2022/08/15 04:28:44;;;;;;;6.53;3.50;;;26.50;50.70;;;;;;5033190;28;20443;-50
2022/08/15 04:31:13;;;;;;;3.60;3.23;;;26.60;50.60;;;;;;5033173;28;20538;-46
2022/08/15 04:33:39;;;;;;;3.63;3.30;;;26.70;50.40;;;;;;5032795;28;20487;-48
2022/08/15 04:36:10;;;;;;;3.70;3.40;;;26.70;50.30;;;;;;5032825;28;20813;-48
2022/08/15 04:38:40;;;;;;;4.67;3.67;;;26.70;50.30;;;;;;5033631;28;20938;-47
2022/08/15 04:41:07;;;;;;;3.37;3.07;;;26.70;50.50;;;;;;5034013;28;20469;-47
2022/08/15 04:43:35;;;;;;;4.20;3.33;;;26.70;50.60;;;;;;5033339;28;20432;-46
2022/08/15 04:46:02;;;;;;;3.47;3.27;;;26.70;50.60;;;;;;5033661;28;20420;-49
2022/08/15 04:48:28;;;;;;;3.20;2.87;;;26.80;50.50;;;;;;5033757;28;20442;-46
2022/08/15 04:50:56;;;;;;;3.90;2.80;;;26.70;50.00;;;;;;5033484;28;20428;-46
2022/08/15 04:53:25;;;;;;;3.40;3.10;;;26.40;50.60;;;;;;5033286;28;20239;-48
2022/08/15 04:55:51;;;;;;;3.43;3.00;;;26.00;51.00;;;;;;5031200;28;20439;-49
2022/08/15 04:58:17;;;;;;;3.07;2.77;;;26.10;51.10;;;;;;5033935;28;20497;-46
2022/08/15 05:01:05;;;;;;;2.80;2.60;;;25.80;51.00;;;;;;5033006;28;20440;-45
2022/08/15 05:03:31;;;;;;;3.13;2.93;;;25.90;51.20;;;;;;5020878;28;20336;-48
2022/08/15 05:06:00;;;;;;;3.70;2.80;;;25.70;51.60;;;;;;5032829;28;20424;-45
2022/08/15 05:08:27;;;;;;;3.10;2.80;;;25.50;52.20;;;;;;5033234;28;20426;-48
2022/08/15 05:10:57;;;;;;;3.40;3.10;;;25.20;53.00;;;;;;5032729;28;20464;-49
2022/08/15 05:13:26;;;;;;;3.50;3.20;;;25.20;53.40;;;;;;5032871;28;20490;-46
2022/08/15 05:15:53;;;;;;;3.20;2.90;;;25.40;53.30;;;;;;5032507;28;20431;-47
2022/08/15 05:18:19;;;;;;;4.13;2.73;;;25.60;52.90;;;;;;5033405;28;20455;-47
2022/08/15 05:20:45;;;;;;;4.10;3.17;;;25.60;52.50;;;;;;5032946;28;20452;-45
2022/08/15 05:23:14;;;;;;;2.90;2.70;;;25.40;53.20;;;;;;5030708;28;20926;-46
2022/08/15 05:25:43;;;;;;;3.83;2.60;;;25.30;53.40;;;;;;5032387;28;20436;-47
2022/08/15 05:28:10;;;;;;;4.30;3.70;;;25.20;53.70;;;;;;5033180;28;21262;-47
2022/08/15 05:30:36;;;;;;;5.10;3.50;;;25.40;53.60;;;;;;5032466;28;20421;-46
2022/08/15 05:33:14;;;;;;;2.70;2.50;;;25.40;53.50;;;;;;5032965;28;20483;-47
2022/08/15 05:35:43;;;;;;;4.07;3.67;;;25.50;54.00;;;;;;5032041;28;20440;-47
2022/08/15 05:38:15;;;;;;;4.33;3.50;;;25.30;53.80;;;;;;5032632;28;20569;-45
2022/08/15 05:40:51;;;;;;;3.40;3.10;;;25.40;53.70;;;;;;5032367;28;20528;-45
2022/08/15 05:43:24;;;;;;;4.23;2.97;;;25.50;53.60;;;;;;5032341;28;20432;-44
2022/08/15 05:46:03;;;;;;;4.53;3.10;;;25.50;53.40;;;;;;5031957;28;21266;-45
2022/08/15 05:48:31;;;;;;;3.83;3.53;;;25.70;53.30;;;;;;5032629;28;20802;-45
2022/08/15 05:51:13;;;;;;;3.27;3.07;;;25.50;53.40;;;;;;5030510;28;20428;-45
2022/08/15 05:53:39;;;;;;;4.00;2.93;;;25.60;53.50;;;;;;5031549;28;20483;-45
2022/08/15 05:56:12;;;;;;;3.10;2.80;;;25.60;53.40;;;;;;5032279;28;20454;-46
2022/08/15 05:58:45;;;;;;;3.30;2.63;;;25.40;53.30;;;;;;5032002;28;20208;-46
2022/08/15 06:01:29;;;;;;;4.80;2.87;;;25.40;53.70;;;;;;5032182;28;20428;-45
2022/08/15 06:04:02;;;;;;;3.47;3.20;;;25.60;53.70;;;;;;5031505;28;20432;-49
2022/08/15 06:06:32;;;;;;;3.60;3.27;;;25.70;53.30;;;;;;5032045;28;20895;-50
2022/08/15 06:09:26;;;;;;;4.80;3.23;;;25.70;53.20;;;;;;5031592;28;20436;-45
2022/08/15 06:11:55;;;;;;;5.67;3.10;;;25.90;52.90;;;;;;5032168;28;20928;-45
2022/08/15 06:14:30;;;;;;;7.60;3.27;;;26.00;52.40;;;;;;5031070;28;21993;-48
2022/08/15 06:17:02;;;;;;;3.30;3.00;;;26.00;52.20;;;;;;5030592;28;20934;-45
2022/08/15 06:19:32;;;;;;;3.00;2.70;;;26.10;52.10;;;;;;5031371;28;21015;-45
2022/08/15 06:22:27;;;;;;;3.57;3.03;;;25.90;52.20;;;;;;5032149;28;20428;-50
2022/08/15 06:25:28;;;;;;;6.30;3.00;;;26.10;52.00;;;;;;5025756;28;20542;-46
2022/08/15 06:28:12;;;;;;;3.00;2.80;;;26.30;51.60;;;;;;5024094;28;20450;-46
2022/08/15 06:30:49;;;;;;;3.20;2.93;;;26.50;51.20;;;;;;5031339;28;20844;-46
2022/08/15 06:33:48;;;;;;;3.23;2.93;;;26.60;50.80;;;;;;5030665;28;20486;-46
2022/08/15 06:36:27;;;;;;;3.10;2.90;;;26.70;51.10;;;;;;5031929;28;20471;-47
2022/08/15 06:39:10;;;;;;;5.10;3.00;;;26.60;50.50;;;;;;5030988;28;20874;-45
2022/08/15 06:42:01;;;;;;;3.37;2.40;;;26.60;50.70;;;;;;5031596;28;20446;-50
2022/08/15 06:44:27;;;;;;;2.73;2.53;;;26.50;50.90;;;;;;5029148;28;20438;-45
2022/08/15 06:46:56;;;;;;;4.70;3.33;;;26.50;51.00;;;;;;5031586;28;20445;-46
2022/08/15 06:49:23;;;;;;;4.10;3.80;;;26.50;51.20;;;;;;5030993;28;20854;-50
2022/08/15 06:51:48;;;;;;;6.20;3.17;;;26.50;51.20;;;;;;5031666;28;20456;-46
2022/08/15 06:54:25;;;;;;;4.77;2.73;;;26.50;51.20;;;;;;5030654;28;20962;-50
2022/08/15 06:57:01;;;;;;;3.27;2.97;;;26.00;51.50;;;;;;5031497;28;20649;-45
2022/08/15 06:59:54;;;;;;;2.70;2.50;;;25.80;52.10;;;;;;5030930;28;20479;-50
2022/08/15 07:02:48;;;;;;;3.00;2.80;;;25.70;52.30;;;;;;5014054;28;20943;-46
2022/08/15 07:05:41;;;;;;;3.40;2.93;;;25.50;52.50;;;;;;5030448;28;20515;-45
2022/08/15 07:08:24;;;;;;;3.33;2.10;;;25.70;52.60;;;;;;5031353;28;20440;-47
2022/08/15 07:11:09;;;;;;;3.20;2.70;;;25.90;52.00;;;;;;5029099;28;20940;-46
2022/08/15 07:13:59;;;;;;;3.27;3.00;;;25.90;51.70;;;;;;5030434;28;20494;-46
2022/08/15 07:16:41;;;;;;;3.80;2.93;;;25.80;51.80;;;;;;5031198;28;20494;-47
2022/08/15 07:19:08;;;;;;;2.60;2.40;;;25.80;51.60;;;;;;5030614;28;20432;-48
2022/08/15 07:21:34;;;;;;;5.77;2.30;;;25.90;51.40;;;;;;5031098;28;20770;-45
2022/08/15 07:24:07;;;;;;;3.40;2.63;;;25.80;51.40;;;;;;5029928;28;20718;-46
2022/08/15 07:26:48;;;;;;;2.50;2.30;;;25.70;51.50;;;;;;5031040;28;20223;-45
2022/08/15 07:29:25;;;;;;;3.13;2.60;;;25.60;52.00;;;;;;5030627;28;20424;-45
2022/08/15 07:31:58;;;;;;;2.57;2.37;;;25.70;52.10;;;;;;5030713;28;20447;-46
2022/08/15 07:34:23;;;;;;;2.53;2.33;;;26.00;51.40;;;;;;5029717;28;20482;-45
2022/08/15 07:36:59;;;;;;;7.90;2.50;;;26.10;51.30;;;;;;5028827;28;20475;-47
2022/08/15 07:39:28;;;;;;;3.00;2.73;;;26.20;50.60;;;;;;5029970;28;20204;-47
2022/08/15 07:41:54;;;;;;;3.13;2.70;;;26.40;50.10;;;;;;5030514;28;20439;-48
2022/08/15 07:44:25;;;;;;;5.67;2.63;;;26.60;50.00;;;;;;5030731;28;20814;-45
2022/08/15 07:47:10;;;;;;;3.87;2.53;;;26.60;49.40;;;;;;5037263;28;20195;-46
2022/08/15 07:49:37;;;;;;;2.40;2.30;;;26.70;49.50;;;;;;5036820;28;20573;-47
2022/08/15 07:52:15;;;;;;;5.67;2.27;;;26.60;49.40;;;;;;5037221;28;20428;-47
2022/08/15 07:54:48;;;;;;;3.03;2.73;;;26.40;49.70;;;;;;5036269;28;20493;-46
2022/08/15 07:57:33;;;;;;;3.57;3.03;;;26.40;49.40;;;;;;5037072;28;20958;-46
2022/08/15 08:00:09;;;;;;;3.33;2.67;;;26.40;49.10;;;;;;5036523;28;20443;-47
2022/08/15 08:02:43;;;;;;;3.50;2.20;;;26.40;48.90;;;;;;5035917;28;20446;-49
2022/08/15 08:05:11;;;;;;;3.03;2.57;;;26.60;49.00;;;;;;5036171;28;20805;-47
2022/08/15 08:07:42;;;;;;;2.97;2.40;;;26.70;48.70;;;;;;5037087;28;20497;-50
2022/08/15 08:10:15;;;;;;;3.00;2.67;;;26.90;48.70;;;;;;5036621;28;20586;-46
2022/08/15 08:13:12;;;;;;;3.90;3.60;;;27.10;47.90;;;;;;5037098;28;20842;-50
2022/08/15 08:15:55;;;;;;;2.80;2.50;;;27.20;47.40;;;;;;5036472;28;20451;-46
2022/08/15 08:18:27;;;;;;;3.00;2.30;;;27.20;47.30;;;;;;5037098;28;20435;-47
2022/08/15 08:21:11;;;;;;;3.27;2.23;;;27.40;47.80;;;;;;5036224;28;20590;-48
2022/08/15 08:23:49;;;;;;;2.80;2.60;;;27.60;46.50;;;;;;5036185;28;20465;-48
2022/08/15 08:26:27;;;;;;;2.63;2.10;;;27.70;46.20;;;;;;5037039;28;20424;-49
2022/08/15 08:29:10;;;;;;;3.43;2.53;;;27.80;46.20;;;;;;5036265;28;21147;-47
2022/08/15 08:31:58;;;;;;;1.97;1.87;;;27.80;46.30;;;;;;5035340;28;20523;-45
2022/08/15 08:34:46;;;;;;;2.40;2.10;;;28.10;45.60;;;;;;5035987;28;20543;-45
2022/08/15 08:37:34;;;;;;;2.73;2.30;;;28.50;45.60;;;;;;5036403;28;21057;-45
2022/08/15 08:43:38;;;;;;;3.80;2.30;;;29.00;44.00;;;;;;5022251;28;20867;-45
2022/08/15 08:46:29;;;;;;;3.63;2.23;;;29.00;43.90;;;;;;5036967;28;20427;-45
2022/08/15 08:49:07;;;;;;;3.77;1.97;;;29.10;43.40;;;;;;5035930;28;20943;-46
2022/08/15 08:51:58;;;;;;;4.37;2.40;;;29.20;43.50;;;;;;5036731;28;20497;-46
2022/08/15 08:54:51;;;;;;;2.37;2.17;;;29.20;43.80;;;;;;5035534;28;20529;-45
2022/08/15 08:57:20;;;;;;;1.90;1.80;;;29.50;43.00;;;;;;5031770;28;20440;-45
2022/08/15 08:59:59;;;;;;;2.80;2.20;;;29.80;42.70;;;;;;5032739;28;20424;-46
2022/08/15 09:02:35;;;;;;;2.30;2.20;;;29.50;42.70;;;;;;5033608;28;20526;-46
2022/08/15 09:05:30;;;;;;;2.33;2.20;;;29.40;42.50;;;;;;5032571;28;20424;-46
2022/08/15 09:08:03;;;;;;;2.17;1.97;;;29.50;42.00;;;;;;5033269;28;20432;-45
2022/08/15 09:10:34;;;;;;;2.43;2.23;;;29.80;41.60;;;;;;5032911;28;20467;-46
2022/08/15 09:15:50;;;;;;;2.47;2.27;;;30.10;40.50;;;;;;5033196;28;20439;-45
2022/08/15 09:18:31;;;;;;;1.87;1.77;;;30.10;40.30;;;;;;5033272;28;20942;-46
2022/08/15 09:20:58;;;;;;;2.07;1.97;;;30.00;40.20;;;;;;5032429;28;20424;-46
2022/08/15 09:23:24;;;;;;;2.43;2.10;;;30.00;40.00;;;;;;5030877;28;20772;-47
2022/08/15 09:26:13;;;;;;;2.37;2.17;;;30.10;40.10;;;;;;5032523;28;20446;-46
2022/08/15 09:28:42;;;;;;;2.30;2.10;;;30.50;39.60;;;;;;5032341;28;20462;-46
2022/08/15 09:31:18;;;;;;;2.20;2.10;;;30.60;39.00;;;;;;5032888;28;20439;-45
2022/08/15 09:33:47;;;;;;;2.60;2.40;;;30.30;39.70;;;;;;5031819;28;20483;-47
2022/08/15 09:36:42;;;;;;;2.83;2.67;;;30.40;40.40;;;;;;5033008;28;20444;-47
2022/08/15 09:39:32;;;;;;;2.73;2.53;;;30.70;39.80;;;;;;5032590;28;20494;-46
2022/08/15 09:42:28;;;;;;;2.63;2.43;;;31.10;39.70;;;;;;5032615;28;20444;-46
2022/08/15 09:45:17;;;;;;;2.80;2.23;;;31.40;39.40;;;;;;5031832;28;20443;-47
2022/08/15 09:47:46;;;;;;;2.80;2.60;;;31.70;38.80;;;;;;5032200;28;20513;-50
2022/08/15 09:50:25;;;;;;;2.53;2.33;;;31.90;38.50;;;;;;5030283;28;20535;-46
2022/08/15 09:53:17;;;;;;;5.50;2.00;;;32.00;38.00;;;;;;5031985;28;21005;-46
2022/08/15 09:55:46;;;;;;;2.60;2.40;;;32.30;38.00;;;;;;5031965;28;20446;-47
2022/08/15 09:58:20;;;;;;;2.70;2.50;;;32.60;37.50;;;;;;5032371;28;20439;-47
2022/08/15 10:01:06;;;;;;;2.50;2.30;;;32.80;36.20;;;;;;5031956;28;20440;-49
2022/08/15 10:03:44;;;;;;;3.60;3.10;;;33.00;35.50;;;;;;5032179;28;20443;-51
2022/08/15 10:06:25;;;;;;;2.90;2.70;;;33.20;35.50;;;;;;5031970;28;20436;-48
2022/08/15 10:08:54;;;;;;;2.50;2.30;;;33.10;35.20;;;;;;5030660;28;20527;-49
2022/08/15 10:11:27;;;;;;;2.57;2.47;;;33.40;35.40;;;;;;5032060;28;20439;-49
2022/08/15 10:14:05;;;;;;;2.33;2.17;;;33.60;34.80;;;;;;5031082;28;20483;-46
2022/08/15 10:16:36;;;;;;;2.73;2.53;;;33.80;34.10;;;;;;5030666;28;20517;-51
2022/08/15 10:19:09;;;;;;;2.67;2.47;;;33.90;33.60;;;;;;5031368;28;20548;-49
2022/08/15 10:21:46;;;;;;;2.70;2.50;;;34.00;33.20;;;;;;5031878;28;20440;-48
2022/08/15 10:24:35;;;;;;;2.20;2.10;;;34.10;33.20;;;;;;5031065;28;20553;-48
2022/08/15 10:27:12;;;;;;;2.60;2.40;;;34.10;33.00;;;;;;5031978;28;20424;-49
2022/08/15 10:29:49;;;;;;;2.70;2.50;;;34.30;32.80;;;;;;5031003;28;20969;-46
2022/08/15 10:32:28;;;;;;;2.83;2.63;;;34.60;33.00;;;;;;5031920;28;20802;-49
2022/08/15 10:35:20;;;;;;;2.30;2.20;;;34.80;32.10;;;;;;5029749;28;20815;-50
2022/08/15 10:37:56;;;;;;;2.53;2.33;;;35.00;31.50;;;;;;5031601;28;20504;-49
2022/08/15 10:40:55;;;;;;;3.10;2.90;;;35.00;32.50;;;;;;5030785;28;20982;-50
2022/08/15 10:43:40;;;;;;;2.73;2.53;;;35.10;32.00;;;;;;5029536;28;20956;-49
2022/08/15 10:46:34;;;;;;;2.60;2.40;;;35.20;31.50;;;;;;5031653;28;20436;-47
2022/08/15 10:49:22;;;;;;;2.80;2.60;;;35.40;31.30;;;;;;5030900;28;20472;-50
2022/08/15 10:52:01;;;;;;;3.00;2.43;;;35.50;30.90;;;;;;5031617;28;20432;-48
2022/08/15 10:54:54;;;;;;;2.67;2.57;;;35.60;31.00;;;;;;5030382;28;20509;-47
2022/08/15 10:57:23;;;;;;;6.40;2.23;;;35.80;30.90;;;;;;5031349;28;20441;-46
2022/08/15 10:59:54;;;;;;;2.67;2.50;;;35.90;30.30;;;;;;5030807;28;20424;-49
2022/08/15 11:02:38;;;;;;;2.73;2.57;;;36.00;30.00;;;;;;5030986;28;20939;-49
2022/08/15 11:05:10;;;;;;;6.77;4.63;;;36.00;29.80;;;;;;5030594;28;21003;-51
2022/08/15 11:07:40;;;;;;;2.63;2.47;;;35.80;29.80;;;;;;5031024;28;20420;-50
2022/08/15 11:10:13;;;;;;;2.60;2.43;;;35.80;30.10;;;;;;5028873;28;20432;-49
2022/08/15 11:12:43;;;;;;;3.90;2.60;;;36.00;29.90;;;;;;5030360;28;20584;-50
2022/08/15 11:15:30;;;;;;;3.53;2.50;;;36.00;29.80;;;;;;5030691;28;20432;-50
2022/08/15 11:18:04;;;;;;;2.50;2.30;;;36.10;29.60;;;;;;5030996;28;21009;-50
2022/08/15 11:20:52;;;;;;;2.63;2.53;;;36.10;29.30;;;;;;5029757;28;20541;-51
2022/08/15 11:23:36;;;;;;;3.73;2.23;;;36.30;29.40;;;;;;5030754;28;20502;-47
2022/08/15 11:26:04;;;;;;;2.57;2.37;;;36.30;29.40;;;;;;5030639;28;20435;-46
2022/08/15 11:28:30;;;;;;;2.60;2.40;;;36.30;29.20;;;;;;5030615;28;20431;-46
2022/08/15 11:31:06;;;;;;;4.90;2.60;;;36.40;29.00;;;;;;5030318;28;20485;-46
2022/08/15 11:33:40;;;;;;;2.40;2.20;;;36.60;29.00;;;;;;5030322;28;20483;-46
2022/08/15 11:36:21;;;;;;;2.37;2.20;;;36.70;28.40;;;;;;5030581;28;20946;-46
2022/08/15 11:38:55;;;;;;;3.73;2.23;;;36.80;28.30;;;;;;5028316;28;20468;-47
2022/08/15 11:41:26;;;;;;;6.03;2.33;;;36.90;28.80;;;;;;5030459;28;20523;-46
2022/08/15 11:43:52;;;;;;;3.50;2.60;;;37.00;28.20;;;;;;5029377;28;20482;-46
2022/08/15 11:46:22;;;;;;;2.80;2.60;;;37.20;27.80;;;;;;5030742;28;20787;-47
2022/08/15 11:49:03;;;;;;;5.00;2.63;;;37.20;27.70;;;;;;5030074;28;20428;-51
2022/08/15 11:51:45;;;;;;;2.33;2.23;;;37.10;27.40;;;;;;5030405;28;20440;-47
2022/08/15 11:54:10;;;;;;;2.43;2.23;;;37.20;27.60;;;;;;5029644;28;20510;-51
2022/08/15 11:56:59;;;;;;;2.87;2.70;;;37.20;27.50;;;;;;5030753;28;20488;-50
2022/08/15 11:59:27;;;;;;;2.37;2.17;;;37.20;27.50;;;;;;5029666;28;20200;-47
2022/08/15 12:02:03;;;;;;;5.97;2.40;;;37.30;27.50;;;;;;5030557;28;20440;-48
2022/08/15 12:04:31;;;;;;;2.60;2.40;;;37.50;27.40;;;;;;5028008;28;20438;-48
2022/08/15 12:07:03;;;;;;;2.90;2.20;;;37.50;27.40;;;;;;5030356;28;20424;-51
2022/08/15 12:09:30;;;;;;;2.03;1.93;;;37.40;27.30;;;;;;5029803;28;20419;-50
2022/08/15 12:11:56;;;;;;;12.27;3.43;;;37.40;27.10;;;;;;5030393;28;20524;-46
2022/08/15 12:14:27;;;;;;;2.83;2.63;;;37.30;27.10;;;;;;5029207;28;20570;-51
2022/08/15 12:17:04;;;;;;;5.33;3.10;;;36.40;27.60;;;;;;5030559;28;20626;-46
2022/08/15 12:19:36;;;;;;;2.33;2.23;;;36.30;27.90;;;;;;5029697;28;20469;-50
2022/08/15 12:22:36;;;;;;;2.73;2.30;;;36.40;28.00;;;;;;5029106;28;20814;-46
2022/08/15 12:25:05;;;;;;;2.33;2.23;;;36.80;27.80;;;;;;5027547;28;20908;-46
2022/08/15 12:27:30;;;;;;;2.50;2.33;;;37.00;27.80;;;;;;5030429;28;20431;-46
2022/08/15 12:29:56;;;;;;;3.83;2.23;;;37.10;27.40;;;;;;5029801;28;20431;-46
2022/08/15 12:32:23;;;;;;;2.73;2.43;;;37.20;27.20;;;;;;5030777;28;20197;-47
2022/08/15 12:34:53;;;;;;;3.00;2.50;;;37.20;27.00;;;;;;5033004;28;20681;-49
2022/08/15 12:37:23;;;;;;;2.47;2.27;;;37.20;27.20;;;;;;5033714;28;20482;-48
2022/08/15 12:39:58;;;;;;;2.80;2.60;;;37.20;27.40;;;;;;5033367;28;20432;-50
2022/08/15 12:42:31;;;;;;;2.30;2.13;;;37.40;27.40;;;;;;5033737;28;20434;-47
2022/08/15 12:45:21;;;;;;;2.30;2.10;;;37.60;26.80;;;;;;5033227;28;20423;-49
2022/08/15 12:47:48;;;;;;;2.40;2.20;;;37.90;26.60;;;;;;5033762;28;20439;-51
2022/08/15 12:50:13;;;;;;;2.87;2.60;;;38.10;26.30;;;;;;5033103;28;20462;-51
2022/08/15 12:52:40;;;;;;;2.63;2.30;;;38.20;26.20;;;;;;5033326;28;20506;-51
2022/08/15 12:55:07;;;;;;;3.07;2.60;;;38.30;26.20;;;;;;5033304;28;20192;-50
2022/08/15 12:57:33;;;;;;;2.43;2.23;;;38.30;26.30;;;;;;5031799;28;20446;-50
2022/08/15 12:59:59;;;;;;;2.13;2.03;;;38.30;26.90;;;;;;5032951;28;21000;-50
2022/08/15 13:02:25;;;;;;;2.97;2.50;;;38.10;26.50;;;;;;5033019;28;20431;-51
2022/08/15 13:04:55;;;;;;;2.40;2.20;;;38.10;26.20;;;;;;5032781;28;20641;-49
2022/08/15 13:07:22;;;;;;;3.27;2.60;;;38.20;26.30;;;;;;5033290;28;21167;-50
2022/08/15 13:09:49;;;;;;;5.23;2.30;;;38.30;26.20;;;;;;5032987;28;20455;-50
2022/08/15 13:12:16;;;;;;;3.27;2.43;;;38.30;26.10;;;;;;5033869;28;20431;-51
2022/08/15 13:14:42;;;;;;;2.73;2.53;;;38.20;26.20;;;;;;5032455;28;20478;-50
2022/08/15 13:17:09;;;;;;;2.43;2.30;;;38.30;26.00;;;;;;5033033;28;20427;-51
2022/08/15 13:25:12;;;;;;;2.67;2.43;;;37.80;26.50;;;;;;5030623;28;20430;-51
2022/08/15 13:27:38;;;;;;;3.23;2.80;;;37.80;26.60;;;;;;5033029;28;20442;-50
2022/08/15 13:30:10;;;;;;;2.63;2.40;;;37.90;26.30;;;;;;5032556;28;20420;-48
2022/08/15 13:32:36;;;;;;;2.60;2.50;;;37.80;26.40;;;;;;5032514;28;20435;-50
2022/08/15 13:35:06;;;;;;;2.53;2.33;;;37.60;26.30;;;;;;5032339;28;20825;-46